createdAt,value
2022-12-27T00:01:45.110Z,41.56
2022-12-27T00:04:13.908Z,41.61
2022-12-27T00:06:42.962Z,41.79
2022-12-27T00:09:11.506Z,41.57
2022-12-27T00:11:41.188Z,41.51
2022-12-27T00:14:09.715Z,41.60
2022-12-27T00:16:40.366Z,41.59
2022-12-27T00:19:08.900Z,41.39
2022-12-27T00:21:37.632Z,41.57
2022-12-27T00:24:06.762Z,41.19
2022-12-27T00:26:36.411Z,40.87
2022-12-27T00:29:05.567Z,40.89
2022-12-27T00:31:34.889Z,40.67
2022-12-27T00:34:08.235Z,40.55
2022-12-27T00:36:37.097Z,40.70
2022-12-27T00:39:06.283Z,40.86
2022-12-27T00:41:34.773Z,41.11
2022-12-27T00:44:03.400Z,41.17
2022-12-27T00:46:32.121Z,41.04
2022-12-27T00:49:00.581Z,41.26
2022-12-27T00:51:30.702Z,41.41
2022-12-27T00:53:59.131Z,41.55
2022-12-27T00:56:30.668Z,41.71
2022-12-27T00:59:02.361Z,41.94
2022-12-27T01:01:34.752Z,41.78
2022-12-27T01:04:04.450Z,41.97
2022-12-27T01:06:36.423Z,41.95
2022-12-27T01:09:06.291Z,42.17
2022-12-27T01:11:35.592Z,42.19
2022-12-27T01:14:06.170Z,42.17
2022-12-27T01:16:35.928Z,42.54
2022-12-27T01:19:04.611Z,42.60
2022-12-27T01:21:34.457Z,42.54
2022-12-27T01:24:03.077Z,43.28
2022-12-27T01:26:31.524Z,43.25
2022-12-27T01:28:59.973Z,43.51
2022-12-27T01:31:29.834Z,43.46
2022-12-27T01:34:00.690Z,43.59
2022-12-27T01:36:31.926Z,43.72
2022-12-27T01:39:02.313Z,43.58
2022-12-27T01:41:50.733Z,43.53
2022-12-27T01:44:57.664Z,43.88
2022-12-27T01:47:43.886Z,44.05
2022-12-27T01:50:21.368Z,44.08
2022-12-27T01:52:57.127Z,44.03
2022-12-27T01:55:33.695Z,44.08
2022-12-27T01:58:07.957Z,44.28
2022-12-27T02:00:36.879Z,44.13
2022-12-27T02:03:07.383Z,44.27
2022-12-27T02:05:36.142Z,44.26
2022-12-27T02:08:38.218Z,44.22
2022-12-27T02:11:10.279Z,44.40
2022-12-27T02:13:43.598Z,44.25
2022-12-27T02:16:15.276Z,44.44
2022-12-27T02:18:44.332Z,44.30
2022-12-27T02:21:57.416Z,44.51
2022-12-27T02:25:02.817Z,44.60
2022-12-27T02:27:55.107Z,44.48
2022-12-27T02:30:25.319Z,44.74
2022-12-27T02:33:01.982Z,44.61
2022-12-27T02:35:38.414Z,44.76
2022-12-27T02:38:13.605Z,44.68
2022-12-27T02:41:02.187Z,44.77
2022-12-27T02:43:49.107Z,44.69
2022-12-27T02:46:40.781Z,44.74
2022-12-27T02:49:44.474Z,44.75
2022-12-27T02:52:58.680Z,44.66
2022-12-27T02:56:09.590Z,44.78
2022-12-27T02:58:53.197Z,44.66
2022-12-27T03:01:57.387Z,44.62
2022-12-27T03:04:47.556Z,44.49
2022-12-27T03:07:33.955Z,44.45
2022-12-27T03:10:39.993Z,44.61
2022-12-27T03:13:42.696Z,44.63
2022-12-27T03:16:25.087Z,44.77
2022-12-27T03:19:09.597Z,44.76
2022-12-27T03:21:59.933Z,44.75
2022-12-27T03:24:49.351Z,44.78
2022-12-27T03:27:28.419Z,44.95
2022-12-27T03:30:17.787Z,44.94
2022-12-27T03:33:11.620Z,45.21
2022-12-27T03:36:08.684Z,45.10
2022-12-27T03:39:00.207Z,45.34
2022-12-27T03:41:51.528Z,45.46
2022-12-27T03:44:26.183Z,45.40
2022-12-27T03:46:57.688Z,45.35
2022-12-27T03:49:35.799Z,45.29
2022-12-27T03:52:11.168Z,45.30
2022-12-27T03:54:42.357Z,45.10
2022-12-27T03:57:13.574Z,44.99
2022-12-27T03:59:42.113Z,44.87
2022-12-27T04:02:11.823Z,44.93
2022-12-27T04:04:41.820Z,44.95
2022-12-27T04:07:12.024Z,44.71
2022-12-27T04:09:57.720Z,44.84
2022-12-27T04:12:43.568Z,44.74
2022-12-27T04:15:29.616Z,44.79
2022-12-27T04:18:15.631Z,44.70
2022-12-27T04:21:02.845Z,44.72
2022-12-27T04:23:48.930Z,44.74
2022-12-27T04:26:34.792Z,44.84
2022-12-27T04:29:20.411Z,44.68
2022-12-27T04:32:06.393Z,44.82
2022-12-27T04:34:44.186Z,44.84
2022-12-27T04:37:17.545Z,44.94
2022-12-27T04:40:09.879Z,45.02
2022-12-27T04:42:55.772Z,45.00
2022-12-27T04:45:42.082Z,45.06
2022-12-27T04:48:31.498Z,44.95
2022-12-27T04:51:18.290Z,45.08
2022-12-27T04:54:05.709Z,45.10
2022-12-27T04:56:34.156Z,45.08
2022-12-27T04:59:21.054Z,45.06
2022-12-27T05:02:09.593Z,45.09
2022-12-27T05:04:40.087Z,45.14
2022-12-27T05:07:29.402Z,45.18
2022-12-27T05:10:18.518Z,45.26
2022-12-27T05:13:04.227Z,45.31
2022-12-27T05:15:32.718Z,45.29
2022-12-27T05:18:01.114Z,45.30
2022-12-27T05:20:29.836Z,45.32
2022-12-27T05:23:15.716Z,45.40
2022-12-27T05:25:47.448Z,45.46
2022-12-27T05:28:15.904Z,45.43
2022-12-27T05:30:45.707Z,45.41
2022-12-27T05:33:14.238Z,45.21
2022-12-27T05:35:43.241Z,44.76
2022-12-27T05:38:12.134Z,44.74
2022-12-27T05:40:40.575Z,44.61
2022-12-27T05:43:10.368Z,44.59
2022-12-27T05:45:38.761Z,44.23
2022-12-27T05:48:07.636Z,43.89
2022-12-27T05:50:36.084Z,43.98
2022-12-27T05:53:04.494Z,43.62
2022-12-27T05:55:32.965Z,43.73
2022-12-27T05:58:01.422Z,43.61
2022-12-27T06:00:31.475Z,43.55
2022-12-27T06:03:00.015Z,43.44
2022-12-27T06:05:28.495Z,43.18
2022-12-27T06:07:57.033Z,42.38
2022-12-27T06:10:25.421Z,42.50
2022-12-27T06:12:53.882Z,41.50
2022-12-27T06:15:22.319Z,41.92
2022-12-27T06:17:52.147Z,41.60
2022-12-27T06:20:21.682Z,41.65
2022-12-27T06:22:50.192Z,41.40
2022-12-27T06:25:18.814Z,40.97
2022-12-27T06:27:47.267Z,40.64
2022-12-27T06:30:15.970Z,39.99
2022-12-27T06:32:44.384Z,39.13
2022-12-27T06:35:14.406Z,38.36
2022-12-27T06:37:43.063Z,38.69
2022-12-27T06:40:12.759Z,38.59
2022-12-27T06:42:41.184Z,37.88
2022-12-27T06:45:11.047Z,38.29
2022-12-27T06:47:39.508Z,37.98
2022-12-27T06:50:09.255Z,37.86
2022-12-27T06:52:39.114Z,38.19
2022-12-27T06:55:08.606Z,38.17
2022-12-27T06:57:37.091Z,38.59
2022-12-27T07:00:07.301Z,38.93
2022-12-27T07:02:35.841Z,38.86
2022-12-27T07:05:04.632Z,39.29
2022-12-27T07:07:33.216Z,39.18
2022-12-27T07:10:03.405Z,38.21
2022-12-27T07:12:36.654Z,37.60
2022-12-27T07:15:07.193Z,37.81
2022-12-27T07:17:37.064Z,37.78
2022-12-27T07:20:06.446Z,37.95
2022-12-27T07:22:35.023Z,38.12
2022-12-27T07:25:05.479Z,37.92
2022-12-27T07:27:34.960Z,37.52
2022-12-27T07:30:03.830Z,37.67
2022-12-27T07:32:32.274Z,38.14
2022-12-27T07:35:00.702Z,37.37
2022-12-27T07:37:29.204Z,36.60
2022-12-27T07:39:57.652Z,36.80
2022-12-27T07:42:27.556Z,36.88
2022-12-27T07:44:56.018Z,36.53
2022-12-27T07:47:24.487Z,36.67
2022-12-27T07:49:52.936Z,36.81
2022-12-27T07:52:21.446Z,37.48
2022-12-27T07:54:49.876Z,37.12
2022-12-27T07:57:18.346Z,37.48
2022-12-27T07:59:48.216Z,37.26
2022-12-27T08:02:17.344Z,37.62
2022-12-27T08:04:45.842Z,37.31
2022-12-27T08:07:18.284Z,36.53
2022-12-27T08:09:49.406Z,36.79
2022-12-27T08:12:18.282Z,36.62
2022-12-27T08:14:48.245Z,36.73
2022-12-27T08:17:20.890Z,36.97
2022-12-27T08:19:51.904Z,36.74
2022-12-27T08:22:20.630Z,35.73
2022-12-27T08:24:49.067Z,35.80
2022-12-27T08:27:23.215Z,35.60
2022-12-27T08:29:54.259Z,36.23
2022-12-27T08:32:22.943Z,36.39
2022-12-27T08:34:51.383Z,36.24
2022-12-27T08:37:19.837Z,36.58
2022-12-27T08:39:48.325Z,36.14
2022-12-27T08:42:16.758Z,35.81
2022-12-27T08:44:45.252Z,35.77
2022-12-27T08:47:15.200Z,36.23
2022-12-27T08:49:43.725Z,36.53
2022-12-27T08:52:12.293Z,36.58
2022-12-27T08:54:40.726Z,36.50
2022-12-27T08:57:09.138Z,36.60
2022-12-27T08:59:37.556Z,36.69
2022-12-27T09:02:06.090Z,36.51
2022-12-27T09:04:35.981Z,36.71
2022-12-27T09:07:05.131Z,37.00
2022-12-27T09:09:33.621Z,36.51
2022-12-27T09:12:04.262Z,37.07
2022-12-27T09:14:36.537Z,36.72
2022-12-27T09:17:07.204Z,37.22
2022-12-27T09:19:37.355Z,36.83
2022-12-27T09:22:05.830Z,36.79
2022-12-27T09:24:34.317Z,37.13
2022-12-27T09:27:02.797Z,37.19
2022-12-27T09:29:31.427Z,37.25
2022-12-27T09:31:59.868Z,36.96
2022-12-27T09:34:28.347Z,36.49
2022-12-27T09:36:58.187Z,36.64
2022-12-27T09:39:26.635Z,36.55
2022-12-27T09:44:58.233Z,35.89
2022-12-27T09:47:33.014Z,35.92
2022-12-27T09:50:07.052Z,35.56
2022-12-27T09:52:42.600Z,36.24
2022-12-27T09:55:19.175Z,36.29
2022-12-27T09:57:48.713Z,36.18
2022-12-27T10:00:34.545Z,36.17
2022-12-27T10:03:06.423Z,35.59
2022-12-27T10:05:38.215Z,35.57
2022-12-27T10:08:28.148Z,35.81
2022-12-27T10:11:08.536Z,36.09
2022-12-27T10:13:50.702Z,36.02
2022-12-27T10:16:31.008Z,35.95
2022-12-27T10:19:22.280Z,34.96
2022-12-27T10:22:11.482Z,35.17
2022-12-27T10:24:46.831Z,35.38
2022-12-27T10:27:18.863Z,35.22
2022-12-27T10:29:47.563Z,34.68
2022-12-27T10:32:17.719Z,34.64
2022-12-27T10:34:46.523Z,34.53
2022-12-27T10:37:16.857Z,34.78
2022-12-27T10:39:46.780Z,34.90
2022-12-27T10:42:35.580Z,34.74
2022-12-27T10:45:29.548Z,34.81
2022-12-27T10:48:13.011Z,34.16
2022-12-27T10:50:46.749Z,33.21
2022-12-27T10:53:40.076Z,31.95
2022-12-27T10:56:26.178Z,30.50
2022-12-27T10:58:59.059Z,30.26
2022-12-27T11:01:30.873Z,29.62
2022-12-27T11:04:21.014Z,30.10
2022-12-27T11:06:52.947Z,29.61
2022-12-27T11:09:29.743Z,29.18
2022-12-27T11:12:20.842Z,29.67
2022-12-27T11:14:58.587Z,30.02
2022-12-27T11:17:31.101Z,30.09
2022-12-27T11:20:04.247Z,29.82
2022-12-27T11:22:33.106Z,29.49
2022-12-27T11:25:01.951Z,28.55
2022-12-27T11:27:32.303Z,29.29
2022-12-27T11:30:01.852Z,29.19
2022-12-27T11:32:30.587Z,27.61
2022-12-27T11:34:59.451Z,28.25
2022-12-27T11:37:29.101Z,28.38
2022-12-27T11:40:23.138Z,28.93
2022-12-27T11:43:01.484Z,28.84
2022-12-27T11:45:38.619Z,28.79
2022-12-27T11:48:19.583Z,28.86
2022-12-27T11:51:27.665Z,28.59
2022-12-27T11:54:43.044Z,28.53
2022-12-27T11:57:26.296Z,28.46
2022-12-27T12:00:07.074Z,26.47
2022-12-27T12:03:13.488Z,26.77
2022-12-27T12:06:01.216Z,26.95
2022-12-27T12:09:16.316Z,27.20
2022-12-27T12:12:07.758Z,27.26
2022-12-27T12:15:04.031Z,27.13
2022-12-27T12:18:09.622Z,27.46
2022-12-27T12:21:00.964Z,26.15
2022-12-27T12:23:51.950Z,26.22
2022-12-27T12:26:23.066Z,26.25
2022-12-27T12:29:33.165Z,26.30
2022-12-27T12:32:29.000Z,26.22
2022-12-27T12:35:26.471Z,26.22
2022-12-27T12:38:06.723Z,25.95
2022-12-27T12:41:12.294Z,25.77
2022-12-27T12:44:15.044Z,24.80
2022-12-27T12:46:48.679Z,25.88
2022-12-27T12:49:47.253Z,26.85
2022-12-27T12:52:39.732Z,27.55
2022-12-27T12:55:45.467Z,27.93
2022-12-27T12:58:44.420Z,28.55
2022-12-27T13:01:31.488Z,28.86
2022-12-27T13:04:27.405Z,29.25
2022-12-27T13:07:25.726Z,29.54
2022-12-27T13:10:19.291Z,29.89
2022-12-27T13:12:54.922Z,30.07
2022-12-27T13:15:38.692Z,30.40
2022-12-27T13:18:30.111Z,30.50
2022-12-27T13:21:17.595Z,30.20
2022-12-27T13:24:00.852Z,30.66
2022-12-27T13:26:42.938Z,30.72
2022-12-27T13:30:01.691Z,30.98
2022-12-27T13:32:49.762Z,30.93
2022-12-27T13:35:34.128Z,31.31
2022-12-27T13:38:21.328Z,31.41
2022-12-27T13:41:30.770Z,31.55
2022-12-27T13:44:36.947Z,31.83
2022-12-27T13:47:36.693Z,31.92
2022-12-27T13:50:48.050Z,32.18
2022-12-27T13:53:56.579Z,32.31
2022-12-27T13:56:54.847Z,32.55
2022-12-27T14:00:17.317Z,32.56
2022-12-27T14:03:39.812Z,32.65
2022-12-27T14:06:50.299Z,32.94
2022-12-27T14:10:12.671Z,32.92
2022-12-27T14:13:01.591Z,33.02
2022-12-27T14:16:15.400Z,33.38
2022-12-27T14:19:18.835Z,33.48
2022-12-27T14:22:53.794Z,33.38
2022-12-27T14:26:36.948Z,33.67
2022-12-27T14:29:43.714Z,33.58
2022-12-27T14:33:09.937Z,33.79
2022-12-27T14:36:14.695Z,34.02
2022-12-27T14:39:23.635Z,34.10
2022-12-27T14:42:55.965Z,34.04
2022-12-27T14:46:11.471Z,34.30
2022-12-27T14:49:32.981Z,34.53
2022-12-27T14:52:45.066Z,34.19
2022-12-27T14:55:37.171Z,34.48
2022-12-27T14:58:32.928Z,34.76
2022-12-27T15:01:15.034Z,34.66
2022-12-27T15:04:11.742Z,34.59
2022-12-27T15:07:20.488Z,34.63
2022-12-27T15:09:56.728Z,34.94
2022-12-27T15:12:35.514Z,34.97
2022-12-27T15:15:35.699Z,34.74
2022-12-27T15:18:28.174Z,34.82
2022-12-27T15:21:28.521Z,34.99
2022-12-27T15:24:05.617Z,34.88
2022-12-27T15:26:47.794Z,35.31
2022-12-27T15:29:32.510Z,35.26
2022-12-27T15:32:16.488Z,35.28
2022-12-27T15:35:17.819Z,35.64
2022-12-27T15:37:59.208Z,35.32
2022-12-27T15:40:50.678Z,35.68
2022-12-27T15:43:56.351Z,35.48
2022-12-27T15:47:09.406Z,35.43
2022-12-27T15:50:20.734Z,35.51
2022-12-27T15:53:30.370Z,35.52
2022-12-27T15:56:37.847Z,35.75
2022-12-27T15:59:45.611Z,35.84
2022-12-27T16:02:33.130Z,36.28
2022-12-27T16:05:34.376Z,36.06
2022-12-27T16:08:38.926Z,36.02
2022-12-27T16:11:13.651Z,35.83
2022-12-27T16:13:46.806Z,36.28
2022-12-27T16:17:06.094Z,36.45
2022-12-27T16:20:03.064Z,36.45
2022-12-27T16:22:37.820Z,36.63
2022-12-27T16:25:35.053Z,36.33
2022-12-27T16:28:08.875Z,36.17
2022-12-27T16:30:47.720Z,36.63
2022-12-27T16:33:37.884Z,36.67
2022-12-27T16:36:23.462Z,36.79
2022-12-27T16:39:39.575Z,36.75
2022-12-27T16:42:10.363Z,36.85
2022-12-27T16:44:57.522Z,36.61
2022-12-27T16:48:12.042Z,36.95
2022-12-27T16:51:12.243Z,37.25
2022-12-27T16:54:03.511Z,37.36
2022-12-27T16:56:33.755Z,37.46
2022-12-27T16:59:03.779Z,37.52
2022-12-27T17:01:59.783Z,37.73
2022-12-27T17:04:54.753Z,37.38
2022-12-27T17:07:50.492Z,37.33
2022-12-27T17:10:57.467Z,37.18
2022-12-27T17:13:43.205Z,37.48
2022-12-27T17:16:21.994Z,37.26
2022-12-27T17:18:56.181Z,37.39
2022-12-27T17:21:31.774Z,37.58
2022-12-27T17:24:06.714Z,37.76
2022-12-27T17:27:10.713Z,37.71
2022-12-27T17:30:04.000Z,37.37
2022-12-27T17:33:14.545Z,37.75
2022-12-27T17:36:21.286Z,37.61
2022-12-27T17:39:08.994Z,37.94
2022-12-27T17:42:21.362Z,37.86
2022-12-27T17:45:19.064Z,37.67
2022-12-27T17:48:15.060Z,38.07
2022-12-27T17:50:45.537Z,37.79
2022-12-27T17:53:39.430Z,38.14
2022-12-27T17:56:36.114Z,38.30
2022-12-27T17:59:24.604Z,38.28
2022-12-27T18:01:57.905Z,38.14
2022-12-27T18:04:32.789Z,38.43
2022-12-27T18:07:05.155Z,38.34
2022-12-27T18:09:42.335Z,38.36
2022-12-27T18:12:18.900Z,38.43
2022-12-27T18:14:53.436Z,38.83
2022-12-27T18:17:29.444Z,38.90
2022-12-27T18:19:59.970Z,39.11
2022-12-27T18:22:29.797Z,39.11
2022-12-27T18:24:59.750Z,39.46
2022-12-27T18:27:29.141Z,39.84
2022-12-27T18:29:58.555Z,39.77
2022-12-27T18:32:29.710Z,40.08
2022-12-27T18:35:02.792Z,40.23
2022-12-27T18:37:35.508Z,39.78
2022-12-27T18:40:07.100Z,39.80
2022-12-27T18:42:44.762Z,40.03
2022-12-27T18:45:26.445Z,40.08
2022-12-27T18:47:57.965Z,40.20
2022-12-27T18:50:31.557Z,40.26
2022-12-27T18:53:04.277Z,39.83
2022-12-27T18:55:33.504Z,40.11
2022-12-27T18:58:20.168Z,39.89
2022-12-27T19:00:52.842Z,39.60
2022-12-27T19:03:23.025Z,39.78
2022-12-27T19:06:10.266Z,39.53
2022-12-27T19:08:45.195Z,39.89
2022-12-27T19:11:22.422Z,39.84
2022-12-27T19:13:55.613Z,39.62
2022-12-27T19:16:28.983Z,39.74
2022-12-27T19:19:02.550Z,39.61
2022-12-27T19:21:37.207Z,39.54
2022-12-27T19:24:35.826Z,39.55
2022-12-27T19:27:24.317Z,39.32
2022-12-27T19:29:54.256Z,39.53
2022-12-27T19:32:28.695Z,39.60
2022-12-27T19:35:02.287Z,39.65
2022-12-27T19:37:35.751Z,39.78
2022-12-27T19:40:05.057Z,39.37
2022-12-27T19:42:36.720Z,39.63
2022-12-27T19:45:06.524Z,39.39
2022-12-27T19:47:39.433Z,39.83
2022-12-27T19:50:09.326Z,39.76
2022-12-27T19:52:41.149Z,39.37
2022-12-27T19:55:19.220Z,39.68
2022-12-27T19:57:48.640Z,39.78
2022-12-27T20:00:19.361Z,39.62
2022-12-27T20:02:48.569Z,39.54
2022-12-27T20:05:17.827Z,39.99
2022-12-27T20:08:24.101Z,39.57
2022-12-27T20:10:53.570Z,39.86
2022-12-27T20:13:22.625Z,39.82
2022-12-27T20:15:52.712Z,39.59
2022-12-27T20:18:22.658Z,39.59
2022-12-27T20:20:52.066Z,39.58
2022-12-27T20:23:22.906Z,39.93
2022-12-27T20:25:52.038Z,39.75
2022-12-27T20:28:20.951Z,39.83
2022-12-27T20:30:49.766Z,39.77
2022-12-27T20:33:19.683Z,40.23
2022-12-27T20:35:59.045Z,39.72
2022-12-27T20:38:29.835Z,40.19
2022-12-27T20:40:58.396Z,39.64
2022-12-27T20:43:27.565Z,39.99
2022-12-27T20:45:56.773Z,39.99
2022-12-27T20:48:25.268Z,40.01
2022-12-27T20:50:53.933Z,39.91
2022-12-27T20:53:28.076Z,39.84
2022-12-27T20:56:05.144Z,40.27
2022-12-27T20:58:34.613Z,40.13
2022-12-27T21:01:09.431Z,40.47
2022-12-27T21:03:39.851Z,40.01
2022-12-27T21:06:11.589Z,40.44
2022-12-27T21:08:46.603Z,40.04
2022-12-27T21:11:21.652Z,40.12
2022-12-27T21:13:51.362Z,39.94
2022-12-27T21:16:23.271Z,40.45
2022-12-27T21:18:52.375Z,40.07
2022-12-27T21:21:28.036Z,40.40
2022-12-27T21:23:58.719Z,40.08
2022-12-27T21:26:32.192Z,40.14
2022-12-27T21:29:03.021Z,40.61
2022-12-27T21:31:33.190Z,40.24
2022-12-27T21:34:02.021Z,40.57
2022-12-27T21:36:34.117Z,40.68
2022-12-27T21:39:04.137Z,40.85
2022-12-27T21:41:36.689Z,40.43
2022-12-27T21:44:05.678Z,40.51
2022-12-27T21:46:37.423Z,40.29
2022-12-27T21:49:08.362Z,40.47
2022-12-27T21:51:38.611Z,40.58
2022-12-27T21:54:07.851Z,40.63
2022-12-27T21:56:39.211Z,40.87
2022-12-27T21:59:12.015Z,40.99
2022-12-27T22:01:51.964Z,41.10
2022-12-27T22:04:22.063Z,41.05
2022-12-27T22:06:50.728Z,40.93
2022-12-27T22:09:20.046Z,41.11
2022-12-27T22:11:50.215Z,41.20
2022-12-27T22:14:24.952Z,41.10
2022-12-27T22:16:54.034Z,41.20
2022-12-27T22:19:22.477Z,41.46
2022-12-27T22:21:50.973Z,41.52
2022-12-27T22:24:20.129Z,41.26
2022-12-27T22:26:50.620Z,41.61
2022-12-27T22:29:19.423Z,41.72
2022-12-27T22:31:47.933Z,41.47
2022-12-27T22:34:16.507Z,41.67
2022-12-27T22:36:45.054Z,41.60
2022-12-27T22:39:13.517Z,41.78
2022-12-27T22:41:41.998Z,41.75
2022-12-27T22:44:15.689Z,41.79
2022-12-27T22:47:15.771Z,41.68
2022-12-27T22:49:33.216Z,41.80
2022-12-27T22:52:01.663Z,41.83
2022-12-27T22:55:05.796Z,41.95
2022-12-27T22:57:18.586Z,41.84
2022-12-27T22:59:48.462Z,42.00
2022-12-27T23:02:17.247Z,41.92
2022-12-27T23:04:45.897Z,42.03
2022-12-27T23:07:14.363Z,41.92
2022-12-27T23:09:43.623Z,41.94
2022-12-27T23:12:12.739Z,42.07
2022-12-27T23:14:41.472Z,41.93
2022-12-27T23:17:11.598Z,42.12
2022-12-27T23:19:40.163Z,42.22
2022-12-27T23:22:09.030Z,42.06
2022-12-27T23:24:37.494Z,42.14
2022-12-27T23:27:05.921Z,42.09
2022-12-27T23:29:34.389Z,42.27
2022-12-27T23:32:02.888Z,42.27
2022-12-27T23:34:32.776Z,42.30
2022-12-27T23:37:02.205Z,42.63
2022-12-27T23:39:30.897Z,42.33
2022-12-27T23:41:59.380Z,42.27
2022-12-27T23:44:33.333Z,42.60
2022-12-27T23:47:05.361Z,42.58
2022-12-27T23:49:35.774Z,42.61
2022-12-27T23:52:04.327Z,42.67
2022-12-27T23:54:32.875Z,42.68
2022-12-27T23:57:20.745Z,42.55
2022-12-27T23:59:50.185Z,42.53
